Virgie Cenac — WDC2765 — position and weather

sailwx.info

Track history (hours):
 
Tides and Currents Weather Stations Pressure Air Temp Water Temp Dewpoint Dewpoint Depression Visibility Wind Speed Wind Dir Waves Ship Positions

Virgie Cenac

Owner: Cenac Marine Transportation, Inc., Houma, LA. More information available from US FCC via Universal Licensing System and Coast Guard Vessel Documentation Center.

Last reported at 2015-May-24 19:26 UTC. Time now 2015-May-29 22:30 UTC.
Position N 29°26' W 090°43'.

Length 18 m; draft 3 m.

Type: Towing. MMSI: 366997430.

Date/timePositionNaut miles runAvg speedWind from/ knotsBaromVisibWave heightAir tempDewpointWater temp
2015-May-24 19:26N 29°26' W 090°43'6 6.9
2015-May-24 18:33N 29°32' W 090°42'5 5.1
2015-May-24 17:33N 29°37' W 090°42'2 1.7
2015-May-24 16:33N 29°36' W 090°40'0 0.0
2015-May-24 15:33N 29°36' W 090°40'0 0.1
2015-May-24 14:33N 29°36' W 090°40'0 0.0
2015-May-24 13:33N 29°36' W 090°40'0 0.2
2015-May-24 12:33N 29°36' W 090°40'0 0.2
2015-May-24 11:33N 29°36' W 090°40'0 0.0
2015-May-24 10:33N 29°36' W 090°40'0 0.0
2015-May-24 09:33N 29°36' W 090°40'0 0.0
2015-May-24 08:33N 29°36' W 090°40'0 0.0
2015-May-24 07:33N 29°36' W 090°40'0 0.0
2015-May-24 06:33N 29°36' W 090°40'0 0.0
2015-May-24 05:33N 29°36' W 090°40'0 0.0
2015-May-24 04:32N 29°36' W 090°40'0 0.0
2015-May-24 03:33N 29°36' W 090°40'0 0.0
2015-May-24 02:33N 29°36' W 090°40'0 0.0
2015-May-24 01:33N 29°36' W 090°40'3 3.3
2015-May-24 00:33N 29°35' W 090°43'  
2015-May-19 04:32N 29°25' W 090°43'5 5.6
2015-May-19 03:33N 29°31' W 090°43'4 4.5
2015-May-19 02:33N 29°35' W 090°43'3 2.7
2015-May-19 01:33N 29°36' W 090°40'0 0.1
2015-May-19 00:33N 29°36' W 090°40'0 0.0
2015-May-18 23:33N 29°36' W 090°40'0 0.0
2015-May-18 22:33N 29°36' W 090°40'0 0.0
2015-May-18 21:33N 29°36' W 090°40'0 0.0
2015-May-18 20:33N 29°36' W 090°40'0 0.0
2015-May-18 19:33N 29°36' W 090°40'0 0.1
2015-May-18 18:33N 29°36' W 090°40'0 0.1
2015-May-18 17:33N 29°36' W 090°40'0 0.1
2015-May-18 16:33N 29°36' W 090°40'0 0.1
2015-May-18 15:32N 29°36' W 090°40'0 0.0
2015-May-18 14:31N 29°36' W 090°40'0 0.0
2015-May-18 13:33N 29°36' W 090°40'0 0.0
2015-May-18 12:32N 29°36' W 090°40'0 0.0
2015-May-18 11:32N 29°36' W 090°40'0 0.0
2015-May-18 10:33N 29°36' W 090°40'0 0.0
2015-May-18 09:33N 29°36' W 090°40'0 0.0
2015-May-18 08:31N 29°36' W 090°40'0 0.0
2015-May-18 07:33N 29°36' W 090°40'0 0.0
2015-May-18 06:27N 29°36' W 090°40'0 0.0
2015-May-18 03:32N 29°36' W 090°40'0 0.0
2015-May-18 02:09N 29°36' W 090°40'0 0.0
2015-May-18 01:31N 29°36' W 090°40'0 0.1
2015-May-18 00:33N 29°36' W 090°40'0 0.0
2015-May-17 23:21N 29°36' W 090°40'0 0.0
2015-May-17 22:33N 29°36' W 090°40'0 0.0
2015-May-17 21:25N 29°36' W 090°40'0 0.0
2015-May-17 20:30N 29°36' W 090°40'0 0.0
2015-May-17 19:33N 29°36' W 090°40'0 0.0
2015-May-17 18:33N 29°36' W 090°40'0 0.0
2015-May-17 17:33N 29°36' W 090°40'0 0.0
2015-May-17 16:33N 29°36' W 090°40'0 0.0
2015-May-17 15:33N 29°36' W 090°40'0 0.0
2015-May-17 14:33N 29°36' W 090°40'0 0.0
2015-May-17 13:33N 29°36' W 090°40'0 0.0
2015-May-17 12:33N 29°36' W 090°40'0 0.1
2015-May-17 11:33N 29°36' W 090°40'0 0.0
2015-May-17 10:33N 29°36' W 090°40'0 0.0
2015-May-17 09:33N 29°36' W 090°40'0 0.0
2015-May-17 08:33N 29°36' W 090°40'0 0.0
2015-May-17 07:33N 29°36' W 090°40'0 0.0
2015-May-17 06:33N 29°36' W 090°40'0 0.0
2015-May-17 05:33N 29°36' W 090°40'0 0.0
2015-May-17 04:33N 29°36' W 090°40'0 0.0
2015-May-17 03:33N 29°36' W 090°40'0 0.0
2015-May-17 02:33N 29°36' W 090°40'0 0.0
2015-May-17 01:33N 29°36' W 090°40'0 0.0
2015-May-17 00:33N 29°36' W 090°40'0 0.0
2015-May-16 23:33N 29°36' W 090°40'0 0.2
2015-May-16 22:33N 29°36' W 090°40'0 0.1
2015-May-16 21:33N 29°36' W 090°40'2 2.4
2015-May-16 20:33N 29°37' W 090°42'3 3.4
2015-May-16 19:33N 29°33' W 090°42'6 6.0
2015-May-16 18:29N 29°27' W 090°43'  
Track history (hours):
 
Tides and Currents Weather Stations Pressure Air Temp Water Temp Dewpoint Dewpoint Depression Visibility Wind Speed Wind Dir Waves Ship Positions

Virgie Cenac

Owner: Cenac Marine Transportation, Inc., Houma, LA. More information available from US FCC via Universal Licensing System and Coast Guard Vessel Documentation Center.

Last reported at 2015-May-24 19:26 UTC. Time now 2015-May-29 22:30 UTC.
Position N 29°26' W 090°43'.

Length 18 m; draft 3 m.

Type: Towing. MMSI: 366997430.

Date/timePositionNaut miles runAvg speedWind from/ knotsBaromVisibWave heightAir tempDewpointWater temp
2015-May-24 19:26N 29°26' W 090°43'6 6.9
2015-May-24 18:33N 29°32' W 090°42'5 5.1
2015-May-24 17:33N 29°37' W 090°42'2 1.7
2015-May-24 16:33N 29°36' W 090°40'0 0.0
2015-May-24 15:33N 29°36' W 090°40'0 0.1
2015-May-24 14:33N 29°36' W 090°40'0 0.0
2015-May-24 13:33N 29°36' W 090°40'0 0.2
2015-May-24 12:33N 29°36' W 090°40'0 0.2
2015-May-24 11:33N 29°36' W 090°40'0 0.0
2015-May-24 10:33N 29°36' W 090°40'0 0.0
2015-May-24 09:33N 29°36' W 090°40'0 0.0
2015-May-24 08:33N 29°36' W 090°40'0 0.0
2015-May-24 07:33N 29°36' W 090°40'0 0.0
2015-May-24 06:33N 29°36' W 090°40'0 0.0
2015-May-24 05:33N 29°36' W 090°40'0 0.0
2015-May-24 04:32N 29°36' W 090°40'0 0.0
2015-May-24 03:33N 29°36' W 090°40'0 0.0
2015-May-24 02:33N 29°36' W 090°40'0 0.0
2015-May-24 01:33N 29°36' W 090°40'3 3.3
2015-May-24 00:33N 29°35' W 090°43'  
2015-May-19 04:32N 29°25' W 090°43'5 5.6
2015-May-19 03:33N 29°31' W 090°43'4 4.5
2015-May-19 02:33N 29°35' W 090°43'3 2.7
2015-May-19 01:33N 29°36' W 090°40'0 0.1
2015-May-19 00:33N 29°36' W 090°40'0 0.0
2015-May-18 23:33N 29°36' W 090°40'0 0.0
2015-May-18 22:33N 29°36' W 090°40'0 0.0
2015-May-18 21:33N 29°36' W 090°40'0 0.0
2015-May-18 20:33N 29°36' W 090°40'0 0.0
2015-May-18 19:33N 29°36' W 090°40'0 0.1
2015-May-18 18:33N 29°36' W 090°40'0 0.1
2015-May-18 17:33N 29°36' W 090°40'0 0.1
2015-May-18 16:33N 29°36' W 090°40'0 0.1
2015-May-18 15:32N 29°36' W 090°40'0 0.0
2015-May-18 14:31N 29°36' W 090°40'0 0.0
2015-May-18 13:33N 29°36' W 090°40'0 0.0
2015-May-18 12:32N 29°36' W 090°40'0 0.0
2015-May-18 11:32N 29°36' W 090°40'0 0.0
2015-May-18 10:33N 29°36' W 090°40'0 0.0
2015-May-18 09:33N 29°36' W 090°40'0 0.0
2015-May-18 08:31N 29°36' W 090°40'0 0.0
2015-May-18 07:33N 29°36' W 090°40'0 0.0
2015-May-18 06:27N 29°36' W 090°40'0 0.0
2015-May-18 03:32N 29°36' W 090°40'0 0.0
2015-May-18 02:09N 29°36' W 090°40'0 0.0
2015-May-18 01:31N 29°36' W 090°40'0 0.1
2015-May-18 00:33N 29°36' W 090°40'0 0.0
2015-May-17 23:21N 29°36' W 090°40'0 0.0
2015-May-17 22:33N 29°36' W 090°40'0 0.0
2015-May-17 21:25N 29°36' W 090°40'0 0.0
2015-May-17 20:30N 29°36' W 090°40'0 0.0
2015-May-17 19:33N 29°36' W 090°40'0 0.0
2015-May-17 18:33N 29°36' W 090°40'0 0.0
2015-May-17 17:33N 29°36' W 090°40'0 0.0
2015-May-17 16:33N 29°36' W 090°40'0 0.0
2015-May-17 15:33N 29°36' W 090°40'0 0.0
2015-May-17 14:33N 29°36' W 090°40'0 0.0
2015-May-17 13:33N 29°36' W 090°40'0 0.0
2015-May-17 12:33N 29°36' W 090°40'0 0.1
2015-May-17 11:33N 29°36' W 090°40'0 0.0
2015-May-17 10:33N 29°36' W 090°40'0 0.0
2015-May-17 09:33N 29°36' W 090°40'0 0.0
2015-May-17 08:33N 29°36' W 090°40'0 0.0
2015-May-17 07:33N 29°36' W 090°40'0 0.0
2015-May-17 06:33N 29°36' W 090°40'0 0.0
2015-May-17 05:33N 29°36' W 090°40'0 0.0
2015-May-17 04:33N 29°36' W 090°40'0 0.0
2015-May-17 03:33N 29°36' W 090°40'0 0.0
2015-May-17 02:33N 29°36' W 090°40'0 0.0
2015-May-17 01:33N 29°36' W 090°40'0 0.0
2015-May-17 00:33N 29°36' W 090°40'0 0.0
2015-May-16 23:33N 29°36' W 090°40'0 0.2
2015-May-16 22:33N 29°36' W 090°40'0 0.1
2015-May-16 21:33N 29°36' W 090°40'2 2.4
2015-May-16 20:33N 29°37' W 090°42'3 3.4
2015-May-16 19:33N 29°33' W 090°42'6 6.0
2015-May-16 18:29N 29°27' W 090°43'  

Dump ship's entire track history